Strona główna
METAR-TAF:

METAR-TAF

Lotnisko :

Port lotniczy Newcastle

Newcastle, Anglia

Szerokość geograficzna: 55-02N, Długość geograficzna: 001-42W, wysokość: 81 m

Aktualna obserwacja pogody

Raport powstał 29 minut temu, godzina 02:20 UTC
Wiatr 7 kt od zachód
Temperatura 6°C
Wilgotność 75%
Ciśnienie 1025 hPa
Widzialność 10 km lub więcej

METAR: EGNT 010220Z AUTO 27007KT 9999 OVC041/// 06/02 Q1025

czas: 03:49 (02:49 UTC)

Prognoza

Raport powstał 3 godziny i 46 minut temu, godzina 23:03 UTC
Prognoza ważna od 01 godzina 00 UTC do 01 godzina 24 UTC
Wiatr 3 kt z kierunków zmiennych
Widzialność 10 km lub więcej
Przerywane chmury na wysokości 3000 ft

TAF: EGNT 312303Z 0100/0124 VRB03KT 9999 BKN030

Obserwacja i prognoza pogody dla ponad 4000 lotnisk (raport METAR i TAF).

Dostępne stacje oznaczono żółtymi i czerwonymi punktami na mapie.

Najedź kursorem aby zobaczyć nazwę stacji.

Kliknij aby zobaczyć obserwacje i prognozy pogody.

Aby zmienić mapę: kliknij na zielony przycisk z czarnym krzyżykiem, aby powiększyć; na zielony przycisk z myślnikiem, aby pomniejszyć; na zielone strzałki, aby przejść do map sąsiednich.


METAR-TAF: